createdAt,value
2023-01-30T00:01:33.737Z,6.65
2023-01-30T00:04:00.414Z,5.72
2023-01-30T00:06:27.403Z,7.10
2023-01-30T00:08:54.271Z,7.68
2023-01-30T00:11:21.581Z,6.28
2023-01-30T00:13:49.972Z,6.20
2023-01-30T00:16:17.229Z,8.20
2023-01-30T00:18:44.832Z,6.30
2023-01-30T00:21:13.828Z,7.53
2023-01-30T00:23:43.889Z,7.28
2023-01-30T00:26:15.986Z,7.38
2023-01-30T00:28:42.740Z,7.85
2023-01-30T00:31:09.600Z,7.25
2023-01-30T00:33:40.258Z,7.63
2023-01-30T00:36:07.515Z,9.13
2023-01-30T00:38:34.395Z,8.00
2023-01-30T00:41:01.153Z,10.00
2023-01-30T00:43:46.436Z,7.80
2023-01-30T00:46:37.597Z,7.68
2023-01-30T00:49:04.294Z,7.97
2023-01-30T00:51:31.112Z,8.07
2023-01-30T00:53:57.895Z,10.13
2023-01-30T00:56:24.812Z,7.90
2023-01-30T00:58:51.569Z,9.73
2023-01-30T01:01:21.092Z,8.63
2023-01-30T01:03:48.026Z,8.50
2023-01-30T01:06:14.683Z,8.30
2023-01-30T01:08:41.374Z,7.85
2023-01-30T01:11:08.221Z,7.63
2023-01-30T01:13:34.939Z,8.20
2023-01-30T01:16:01.861Z,8.73
2023-01-30T01:18:31.003Z,9.40
2023-01-30T01:20:57.740Z,9.15
2023-01-30T01:23:31.544Z,10.80
2023-01-30T01:26:01.997Z,8.07
2023-01-30T01:28:28.651Z,8.85
2023-01-30T01:30:55.385Z,8.10
2023-01-30T01:33:29.126Z,11.20
2023-01-30T01:35:59.241Z,8.75
2023-01-30T01:38:26.090Z,9.35
2023-01-30T01:41:10.541Z,8.70
2023-01-30T01:43:57.309Z,9.25
2023-01-30T01:46:27.040Z,8.18
2023-01-30T01:48:56.334Z,11.57
2023-01-30T01:51:30.536Z,8.77
2023-01-30T01:54:19.842Z,9.23
2023-01-30T01:56:48.561Z,9.35
2023-01-30T01:59:32.789Z,8.93
2023-01-30T02:02:01.890Z,10.05
2023-01-30T02:04:48.378Z,11.43
2023-01-30T02:07:17.431Z,9.65
2023-01-30T02:09:47.048Z,9.48
2023-01-30T02:12:17.692Z,11.52
2023-01-30T02:14:44.859Z,9.23
2023-01-30T02:17:11.848Z,11.65
2023-01-30T02:19:55.885Z,12.73
2023-01-30T02:22:37.349Z,11.23
2023-01-30T02:25:40.005Z,11.85
2023-01-30T02:28:39.020Z,11.07
2023-01-30T02:31:28.058Z,12.82
2023-01-30T02:34:16.484Z,10.10
2023-01-30T02:37:11.996Z,11.40
2023-01-30T02:40:11.101Z,13.63
2023-01-30T02:42:48.818Z,11.85
2023-01-30T02:45:34.761Z,12.25
2023-01-30T02:48:13.823Z,11.68
2023-01-30T02:50:47.244Z,12.05
2023-01-30T02:53:14.244Z,12.38
2023-01-30T02:55:42.862Z,13.25
2023-01-30T02:58:12.800Z,10.88
2023-01-30T03:01:24.552Z,10.32
2023-01-30T03:04:03.471Z,10.43
2023-01-30T03:06:47.337Z,11.00
2023-01-30T03:09:22.907Z,12.30
2023-01-30T03:12:14.518Z,11.52
2023-01-30T03:14:51.875Z,9.98
2023-01-30T03:17:21.345Z,13.25
2023-01-30T03:19:49.511Z,10.45
2023-01-30T03:22:16.128Z,10.98
2023-01-30T03:24:43.336Z,12.55
2023-01-30T03:27:14.795Z,8.85
2023-01-30T03:29:41.642Z,11.23
2023-01-30T03:32:08.577Z,10.60
2023-01-30T03:34:38.176Z,9.50
2023-01-30T03:37:05.332Z,10.73
2023-01-30T03:39:35.174Z,12.95
2023-01-30T03:42:02.013Z,9.93
2023-01-30T03:44:28.991Z,9.43
2023-01-30T03:46:55.703Z,10.40
2023-01-30T03:49:22.501Z,10.77
2023-01-30T03:51:49.361Z,8.63
2023-01-30T03:54:16.093Z,9.30
2023-01-30T03:56:43.236Z,10.25
2023-01-30T03:59:10.084Z,9.02
2023-01-30T04:01:37.115Z,12.90
2023-01-30T04:04:03.835Z,9.88
2023-01-30T04:06:30.808Z,9.55
2023-01-30T04:08:57.550Z,10.02
2023-01-30T04:11:24.314Z,11.27
2023-01-30T04:13:51.006Z,10.55
2023-01-30T04:16:23.175Z,11.15
2023-01-30T04:18:50.230Z,11.82
2023-01-30T04:21:17.263Z,10.27
2023-01-30T04:23:46.368Z,9.82
2023-01-30T04:26:14.138Z,10.68
2023-01-30T04:28:41.240Z,9.38
2023-01-30T04:31:08.378Z,9.85
2023-01-30T04:33:40.317Z,11.55
2023-01-30T04:36:10.558Z,12.00
2023-01-30T04:38:37.925Z,11.18
2023-01-30T04:41:05.494Z,10.23
2023-01-30T04:43:32.531Z,9.27
2023-01-30T04:45:59.282Z,13.23
2023-01-30T04:48:28.857Z,11.60
2023-01-30T04:50:58.916Z,16.33
2023-01-30T04:53:26.141Z,9.27
2023-01-30T04:55:55.945Z,12.18
2023-01-30T04:58:22.833Z,10.35
2023-01-30T05:00:49.802Z,10.48
2023-01-30T05:03:16.940Z,10.55
2023-01-30T05:05:46.914Z,10.50
2023-01-30T05:08:16.875Z,11.38
2023-01-30T05:10:43.753Z,16.20
2023-01-30T05:13:10.534Z,11.52
2023-01-30T05:15:39.537Z,15.52
2023-01-30T05:18:06.228Z,13.88
2023-01-30T05:20:33.160Z,12.55
2023-01-30T05:22:59.872Z,12.77
2023-01-30T05:25:26.599Z,12.23
2023-01-30T05:27:57.289Z,14.23
2023-01-30T05:30:24.308Z,14.15
2023-01-30T05:32:51.110Z,13.18
2023-01-30T05:35:18.147Z,12.60
2023-01-30T05:37:45.337Z,15.15
2023-01-30T05:40:14.912Z,12.77
2023-01-30T05:42:41.881Z,11.40
2023-01-30T05:45:12.180Z,12.45
2023-01-30T05:47:41.964Z,10.95
2023-01-30T05:50:11.956Z,12.50
2023-01-30T05:52:38.861Z,13.93
2023-01-30T05:55:08.777Z,13.45
2023-01-30T05:57:35.704Z,11.48
2023-01-30T06:00:02.627Z,10.55
2023-01-30T06:02:31.468Z,12.13
2023-01-30T06:04:58.359Z,12.10
2023-01-30T06:07:25.143Z,10.63
2023-01-30T06:09:51.923Z,14.55
2023-01-30T06:12:18.823Z,9.57
2023-01-30T06:14:45.610Z,14.98
2023-01-30T06:17:12.235Z,11.52
2023-01-30T06:19:39.225Z,14.65
2023-01-30T06:22:08.824Z,12.63
2023-01-30T06:24:38.182Z,10.80
2023-01-30T06:27:05.144Z,12.73
2023-01-30T06:29:33.666Z,10.85
2023-01-30T06:32:00.706Z,12.23
2023-01-30T06:34:29.738Z,11.88
2023-01-30T06:36:56.620Z,10.77
2023-01-30T06:39:26.184Z,9.70
2023-01-30T06:41:52.873Z,10.43
2023-01-30T06:44:19.883Z,11.48
2023-01-30T06:46:52.645Z,10.35
2023-01-30T06:49:22.585Z,8.95
2023-01-30T06:51:49.401Z,9.68
2023-01-30T06:54:21.011Z,10.52
2023-01-30T06:56:49.765Z,9.80
2023-01-30T06:59:16.727Z,8.18
2023-01-30T07:01:43.645Z,7.90
2023-01-30T07:04:10.730Z,7.75
2023-01-30T07:06:40.100Z,8.55
2023-01-30T07:09:07.025Z,8.43
2023-01-30T07:11:37.082Z,6.85
2023-01-30T07:14:07.238Z,7.00
2023-01-30T07:16:34.075Z,7.03
2023-01-30T07:19:00.823Z,6.50
2023-01-30T07:21:28.056Z,5.78
2023-01-30T07:23:54.899Z,6.97
2023-01-30T07:26:22.256Z,6.90
2023-01-30T07:28:49.011Z,6.05
2023-01-30T07:31:15.795Z,6.13
2023-01-30T07:33:42.608Z,5.28
2023-01-30T07:36:09.819Z,6.03
2023-01-30T07:38:36.664Z,5.47
2023-01-30T07:41:03.604Z,5.47
2023-01-30T07:43:30.626Z,5.30
2023-01-30T07:45:57.656Z,5.28
2023-01-30T07:48:24.384Z,5.05
2023-01-30T07:50:51.133Z,5.03
2023-01-30T07:53:19.077Z,5.40
2023-01-30T07:55:46.031Z,5.68
2023-01-30T07:58:16.374Z,5.72
2023-01-30T08:00:44.114Z,4.38
2023-01-30T08:03:15.963Z,5.43
2023-01-30T08:05:42.813Z,5.57
2023-01-30T08:08:12.875Z,4.57
2023-01-30T08:10:39.610Z,4.53
2023-01-30T08:13:06.447Z,4.63
2023-01-30T08:15:33.742Z,5.32
2023-01-30T08:18:00.900Z,4.45
2023-01-30T08:20:28.312Z,5.80
2023-01-30T08:22:55.263Z,3.88
2023-01-30T08:25:23.221Z,4.82
2023-01-30T08:27:50.721Z,4.45
2023-01-30T08:30:21.823Z,3.92
2023-01-30T08:32:49.038Z,4.05
2023-01-30T08:35:24.774Z,4.30
2023-01-30T08:37:54.631Z,3.28
2023-01-30T08:40:21.527Z,4.13
2023-01-30T08:42:48.334Z,4.22
2023-01-30T08:45:18.336Z,4.38
2023-01-30T08:47:45.273Z,4.03
2023-01-30T08:50:12.431Z,3.60
2023-01-30T08:52:39.518Z,3.40
2023-01-30T08:55:06.607Z,3.13
2023-01-30T08:57:33.692Z,4.97
2023-01-30T09:00:02.325Z,3.17
2023-01-30T09:02:29.076Z,3.10
2023-01-30T09:04:55.810Z,2.80
2023-01-30T09:07:22.647Z,3.70
2023-01-30T09:09:49.353Z,3.00
2023-01-30T09:12:16.065Z,2.95
2023-01-30T09:14:46.753Z,2.75
2023-01-30T09:17:15.667Z,3.03
2023-01-30T09:19:43.236Z,2.38
2023-01-30T09:22:12.508Z,2.67
2023-01-30T09:24:39.391Z,2.67
2023-01-30T09:27:06.049Z,2.58
2023-01-30T09:29:32.748Z,2.92
2023-01-30T09:31:59.598Z,2.17
2023-01-30T09:34:30.677Z,1.65
2023-01-30T09:37:04.387Z,2.22
2023-01-30T09:39:31.396Z,2.40
2023-01-30T09:42:25.719Z,3.20
2023-01-30T09:45:13.386Z,4.50
2023-01-30T09:47:45.433Z,4.95
2023-01-30T09:50:36.957Z,2.13
2023-01-30T09:53:14.140Z,3.75
2023-01-30T09:55:44.463Z,8.48
2023-01-30T09:58:17.850Z,3.85
2023-01-30T10:00:44.612Z,3.50
2023-01-30T10:03:18.670Z,2.92
2023-01-30T10:06:07.459Z,4.70
2023-01-30T10:09:11.121Z,3.40
2023-01-30T10:11:50.144Z,4.95
2023-01-30T10:14:22.448Z,6.00
2023-01-30T10:17:17.052Z,7.38
2023-01-30T10:20:02.190Z,5.28
2023-01-30T10:22:41.165Z,6.38
2023-01-30T10:25:30.845Z,5.72
2023-01-30T10:28:06.948Z,7.18
2023-01-30T10:30:34.963Z,6.63
2023-01-30T10:33:05.913Z,6.57
2023-01-30T10:35:36.440Z,8.07
2023-01-30T10:38:30.637Z,10.25
2023-01-30T10:41:02.681Z,6.75
2023-01-30T10:43:33.309Z,9.00
2023-01-30T10:46:15.199Z,5.82
2023-01-30T10:49:06.703Z,15.07
2023-01-30T10:51:50.491Z,5.82
2023-01-30T10:54:23.575Z,14.93
2023-01-30T10:57:13.509Z,9.40
2023-01-30T11:00:07.773Z,9.93
2023-01-30T11:02:54.034Z,9.30
2023-01-30T11:05:26.582Z,9.38
2023-01-30T11:07:53.395Z,10.85
2023-01-30T11:10:23.557Z,6.63
2023-01-30T11:12:57.394Z,5.90
2023-01-30T11:15:27.219Z,6.93
2023-01-30T11:18:33.231Z,11.48
2023-01-30T11:21:08.914Z,8.38
2023-01-30T11:23:45.036Z,10.50
2023-01-30T11:26:46.415Z,11.13
2023-01-30T11:29:28.478Z,13.88
2023-01-30T11:31:55.460Z,6.43
2023-01-30T11:34:24.206Z,13.35
2023-01-30T11:36:51.291Z,9.00
2023-01-30T11:39:18.789Z,9.73
2023-01-30T11:41:54.145Z,13.27
2023-01-30T11:44:27.309Z,9.38
2023-01-30T11:46:54.443Z,12.13
2023-01-30T11:49:48.166Z,10.75
2023-01-30T11:52:09.079Z,7.38
2023-01-30T11:54:39.192Z,13.80
2023-01-30T11:57:11.827Z,8.88
2023-01-30T11:59:47.183Z,11.63
2023-01-30T12:02:26.888Z,6.32
2023-01-30T12:05:03.607Z,7.25
2023-01-30T12:07:32.866Z,5.15
2023-01-30T12:10:02.583Z,8.40
2023-01-30T12:12:34.892Z,6.35
2023-01-30T12:15:16.716Z,9.25
2023-01-30T12:18:12.563Z,4.97
2023-01-30T12:20:45.113Z,6.57
2023-01-30T12:23:16.622Z,7.28
2023-01-30T12:25:59.279Z,6.97
2023-01-30T12:28:41.954Z,10.20
2023-01-30T12:31:23.264Z,12.82
2023-01-30T12:33:50.155Z,10.60
2023-01-30T12:36:25.653Z,14.90
2023-01-30T12:39:14.891Z,11.13
2023-01-30T12:41:48.622Z,8.52
2023-01-30T12:44:34.161Z,10.35
2023-01-30T12:47:19.358Z,10.20
2023-01-30T12:49:46.282Z,9.32
2023-01-30T12:52:13.039Z,7.68
2023-01-30T12:55:02.925Z,12.40
2023-01-30T12:57:37.921Z,13.02
2023-01-30T13:00:32.812Z,9.75
2023-01-30T13:03:10.305Z,9.02
2023-01-30T13:06:30.337Z,6.30
2023-01-30T13:09:17.970Z,8.63
2023-01-30T13:11:50.787Z,4.97
2023-01-30T13:14:25.435Z,6.85
2023-01-30T13:17:30.999Z,5.75
2023-01-30T13:20:12.881Z,10.25
2023-01-30T13:22:43.147Z,15.85
2023-01-30T13:25:39.258Z,7.95
2023-01-30T13:28:16.706Z,6.55
2023-01-30T13:30:44.999Z,6.28
2023-01-30T13:33:21.442Z,9.00
2023-01-30T13:35:53.018Z,7.97
2023-01-30T13:38:26.310Z,6.45
2023-01-30T13:40:56.854Z,7.45
2023-01-30T13:43:37.197Z,8.90
2023-01-30T13:46:08.390Z,9.25
2023-01-30T13:48:43.891Z,8.23
2023-01-30T13:51:33.671Z,8.52
2023-01-30T13:54:18.731Z,5.50
2023-01-30T13:56:59.228Z,6.25
2023-01-30T13:59:59.913Z,12.73
2023-01-30T14:02:27.088Z,10.32
2023-01-30T14:04:54.961Z,11.85
2023-01-30T14:07:23.638Z,7.85
2023-01-30T14:10:02.269Z,8.43
2023-01-30T14:12:34.889Z,7.95
2023-01-30T14:15:07.596Z,5.85
2023-01-30T14:17:36.589Z,8.73
2023-01-30T14:20:17.877Z,5.63
2023-01-30T14:22:55.189Z,3.70
2023-01-30T14:25:33.280Z,5.72
2023-01-30T14:28:00.134Z,2.85
2023-01-30T14:30:39.817Z,5.32
2023-01-30T14:33:33.550Z,2.05
2023-01-30T14:36:03.057Z,1.85
2023-01-30T14:38:34.282Z,0.75
2023-01-30T14:41:00.935Z,0.47
2023-01-30T14:43:43.893Z,0.88
2023-01-30T14:46:22.808Z,0.73
2023-01-30T14:49:01.085Z,0.98
2023-01-30T14:51:39.998Z,11.10
2023-01-30T14:54:13.557Z,1.17
2023-01-30T14:57:01.174Z,2.00
2023-01-30T15:00:14.993Z,3.55
2023-01-30T15:02:44.735Z,3.05
2023-01-30T15:05:15.213Z,3.97
2023-01-30T15:07:52.676Z,8.15
2023-01-30T15:10:25.869Z,3.72
2023-01-30T15:13:15.078Z,7.43
2023-01-30T15:16:16.608Z,3.22
2023-01-30T15:19:04.378Z,2.15
2023-01-30T15:21:51.458Z,2.97
2023-01-30T15:24:23.350Z,2.05
2023-01-30T15:27:43.978Z,3.95
2023-01-30T15:30:30.990Z,0.85
2023-01-30T15:33:26.408Z,2.17
2023-01-30T15:35:57.821Z,5.45
2023-01-30T15:38:27.356Z,4.47
2023-01-30T15:40:56.050Z,4.82
2023-01-30T15:44:00.391Z,5.93
2023-01-30T15:46:46.305Z,5.50
2023-01-30T15:49:34.903Z,4.70
2023-01-30T15:52:03.670Z,3.55
2023-01-30T15:54:30.636Z,2.63
2023-01-30T15:56:59.225Z,6.60
2023-01-30T15:59:38.276Z,6.18
2023-01-30T16:02:14.649Z,4.40
2023-01-30T16:04:41.489Z,4.78
2023-01-30T16:07:22.310Z,4.28
2023-01-30T16:10:06.924Z,3.15
2023-01-30T16:12:36.672Z,5.68
2023-01-30T16:18:05.559Z,4.53
2023-01-30T16:20:58.908Z,8.15
2023-01-30T16:24:07.058Z,7.32
2023-01-30T16:26:35.469Z,12.63
2023-01-30T16:29:12.031Z,5.28
2023-01-30T16:31:40.062Z,11.40
2023-01-30T16:34:22.851Z,10.90
2023-01-30T16:36:49.688Z,9.95
2023-01-30T16:39:42.838Z,6.50
2023-01-30T16:42:28.048Z,12.43
2023-01-30T16:45:24.046Z,9.63
2023-01-30T16:47:50.684Z,7.85
2023-01-30T16:50:22.612Z,6.55
2023-01-30T16:52:55.118Z,9.63
2023-01-30T16:55:26.491Z,7.72
2023-01-30T16:57:55.633Z,17.88
2023-01-30T17:00:26.338Z,9.10
2023-01-30T17:02:58.736Z,5.47
2023-01-30T17:05:30.140Z,10.45
2023-01-30T17:07:57.571Z,5.63
2023-01-30T17:10:30.289Z,7.03
2023-01-30T17:12:59.059Z,10.35
2023-01-30T17:15:27.129Z,10.98
2023-01-30T17:17:53.946Z,11.93
2023-01-30T17:20:20.853Z,7.95
2023-01-30T17:22:50.361Z,5.53
2023-01-30T17:25:47.620Z,9.35
2023-01-30T17:28:21.544Z,12.95
2023-01-30T17:30:50.133Z,6.35
2023-01-30T17:33:16.965Z,5.05
2023-01-30T17:35:44.697Z,11.18
2023-01-30T17:38:20.335Z,6.57
2023-01-30T17:40:47.234Z,8.75
2023-01-30T17:43:14.101Z,8.88
2023-01-30T17:45:40.911Z,12.75
2023-01-30T17:48:07.788Z,6.75
2023-01-30T17:50:36.627Z,12.07
2023-01-30T17:53:04.106Z,8.32
2023-01-30T17:55:30.903Z,9.27
2023-01-30T17:58:00.136Z,13.05
2023-01-30T18:00:27.093Z,13.40
2023-01-30T18:02:56.544Z,10.38
2023-01-30T18:05:23.355Z,8.43
2023-01-30T18:07:50.079Z,16.48
2023-01-30T18:10:19.986Z,10.05
2023-01-30T18:12:47.075Z,13.57
2023-01-30T18:15:16.144Z,9.93
2023-01-30T18:17:47.144Z,12.98
2023-01-30T18:20:16.096Z,13.15
2023-01-30T18:22:45.501Z,11.68
2023-01-30T18:25:15.437Z,18.92
2023-01-30T18:27:44.329Z,13.15
2023-01-30T18:30:17.264Z,15.45
2023-01-30T18:32:52.490Z,17.88
2023-01-30T18:35:19.949Z,9.85
2023-01-30T18:37:46.760Z,19.98
2023-01-30T18:40:16.121Z,13.15
2023-01-30T18:42:42.799Z,16.13
2023-01-30T18:45:09.924Z,18.42
2023-01-30T18:47:36.678Z,10.63
2023-01-30T18:50:04.697Z,15.77
2023-01-30T18:52:31.592Z,14.70
2023-01-30T18:54:58.935Z,15.73
2023-01-30T18:57:25.691Z,19.77
2023-01-30T18:59:54.825Z,12.13
2023-01-30T19:02:21.632Z,19.13
2023-01-30T19:04:48.652Z,20.88
2023-01-30T19:07:15.619Z,21.50
2023-01-30T19:09:43.389Z,17.58
2023-01-30T19:12:28.831Z,16.00
2023-01-30T19:14:56.046Z,16.77
2023-01-30T19:17:22.857Z,15.20
2023-01-30T19:19:50.484Z,10.02
2023-01-30T19:22:18.161Z,13.02
2023-01-30T19:24:45.078Z,11.63
2023-01-30T19:27:14.087Z,23.25
2023-01-30T19:29:42.032Z,9.38
2023-01-30T19:32:09.653Z,12.10
2023-01-30T19:34:40.336Z,17.17
2023-01-30T19:37:07.657Z,18.15
2023-01-30T19:39:34.467Z,14.63
2023-01-30T19:42:01.349Z,13.85
2023-01-30T19:44:28.288Z,17.63
2023-01-30T19:46:55.946Z,17.30
2023-01-30T19:49:22.849Z,20.23
2023-01-30T19:51:49.569Z,15.45
2023-01-30T19:54:18.965Z,12.60
2023-01-30T19:56:48.453Z,13.55
2023-01-30T19:59:16.698Z,11.65
2023-01-30T20:01:46.406Z,20.85
2023-01-30T20:04:13.328Z,14.43
2023-01-30T20:06:43.396Z,20.70
2023-01-30T20:09:11.443Z,21.08
2023-01-30T20:11:42.099Z,17.35
2023-01-30T20:14:10.468Z,18.77
2023-01-30T20:16:37.755Z,16.15
2023-01-30T20:19:11.679Z,15.57
2023-01-30T20:21:38.460Z,13.77
2023-01-30T20:24:05.969Z,15.10
2023-01-30T20:26:39.615Z,14.20
2023-01-30T20:29:11.602Z,19.00
2023-01-30T20:31:41.389Z,11.93
2023-01-30T20:34:12.139Z,11.70
2023-01-30T20:36:39.227Z,14.35
2023-01-30T20:39:07.778Z,12.85
2023-01-30T20:41:37.426Z,14.77
2023-01-30T20:44:06.078Z,10.88
2023-01-30T20:46:43.755Z,16.98
2023-01-30T20:49:21.400Z,9.02
2023-01-30T20:51:50.497Z,7.53
2023-01-30T20:54:21.429Z,11.70
2023-01-30T20:56:50.811Z,10.80
2023-01-30T20:59:20.384Z,11.32
2023-01-30T21:01:47.252Z,15.35
2023-01-30T21:04:18.171Z,16.17
2023-01-30T21:06:53.700Z,8.07
2023-01-30T21:09:22.751Z,24.63
2023-01-30T21:11:55.323Z,7.90
2023-01-30T21:14:26.664Z,10.02
2023-01-30T21:16:53.568Z,12.57
2023-01-30T21:19:20.286Z,16.58
2023-01-30T21:21:53.633Z,10.90
2023-01-30T21:24:23.999Z,8.88
2023-01-30T21:26:51.273Z,4.25
2023-01-30T21:29:23.615Z,5.32
2023-01-30T21:31:51.121Z,6.82
2023-01-30T21:34:18.099Z,10.27
2023-01-30T21:37:04.764Z,17.02
2023-01-30T21:39:50.427Z,11.82
2023-01-30T21:42:35.831Z,10.77
2023-01-30T21:45:02.755Z,12.95
2023-01-30T21:47:30.778Z,10.55
2023-01-30T21:50:02.147Z,7.72
2023-01-30T21:52:28.938Z,14.23
2023-01-30T21:54:57.133Z,4.72
2023-01-30T21:57:23.979Z,12.48
2023-01-30T21:59:50.782Z,15.95
2023-01-30T22:02:17.651Z,9.18
2023-01-30T22:04:44.578Z,8.60
2023-01-30T22:07:11.279Z,11.27
2023-01-30T22:09:40.924Z,12.18
2023-01-30T22:12:10.022Z,9.45
2023-01-30T22:14:36.729Z,7.82
2023-01-30T22:17:03.617Z,13.93
2023-01-30T22:19:35.994Z,10.88
2023-01-30T22:22:04.689Z,12.05
2023-01-30T22:24:31.514Z,12.18
2023-01-30T22:26:58.730Z,10.23
2023-01-30T22:29:25.325Z,6.65
2023-01-30T22:31:52.165Z,18.48
2023-01-30T22:34:19.116Z,15.95
2023-01-30T22:36:45.890Z,9.05
2023-01-30T22:39:12.837Z,12.55
2023-01-30T22:41:39.911Z,13.70
2023-01-30T22:44:09.559Z,8.15
2023-01-30T22:46:37.831Z,9.43
2023-01-30T22:49:06.840Z,11.23
2023-01-30T22:51:36.091Z,6.78
2023-01-30T22:54:05.637Z,10.23
2023-01-30T22:56:38.481Z,18.02
2023-01-30T22:59:06.169Z,14.10
2023-01-30T23:01:35.940Z,11.88
2023-01-30T23:04:06.174Z,15.15
2023-01-30T23:06:36.994Z,11.77
2023-01-30T23:09:05.504Z,11.77
2023-01-30T23:11:38.111Z,12.60
2023-01-30T23:14:10.587Z,15.23
2023-01-30T23:16:39.271Z,14.88
2023-01-30T23:19:08.436Z,11.25
2023-01-30T23:21:37.925Z,9.95
2023-01-30T23:24:07.883Z,11.18
2023-01-30T23:26:40.294Z,11.48
2023-01-30T23:29:13.438Z,12.80
2023-01-30T23:31:41.346Z,12.68
2023-01-30T23:34:14.143Z,9.27
2023-01-30T23:36:40.911Z,16.73
2023-01-30T23:39:08.493Z,12.27
2023-01-30T23:41:36.687Z,12.88
2023-01-30T23:44:03.926Z,9.10
2023-01-30T23:46:35.686Z,11.48
2023-01-30T23:49:10.863Z,12.40
2023-01-30T23:51:38.988Z,7.22
2023-01-30T23:54:06.467Z,11.18
2023-01-30T23:56:36.343Z,7.90
2023-01-30T23:59:03.769Z,12.60
